createdAt,value
2022-12-18T00:01:04.861Z,64.85
2022-12-18T00:03:31.573Z,65.66
2022-12-18T00:05:58.276Z,65.84
2022-12-18T00:08:24.922Z,65.14
2022-12-18T00:10:51.575Z,65.11
2022-12-18T00:13:19.406Z,64.75
2022-12-18T00:15:46.082Z,64.75
2022-12-18T00:18:16.079Z,64.78
2022-12-18T00:20:45.657Z,64.72
2022-12-18T00:23:12.281Z,64.99
2022-12-18T00:25:38.980Z,65.12
2022-12-18T00:28:05.620Z,65.23
2022-12-18T00:30:32.331Z,64.69
2022-12-18T00:32:58.969Z,64.63
2022-12-18T00:35:25.609Z,64.93
2022-12-18T00:37:52.243Z,64.48
2022-12-18T00:40:18.889Z,64.62
2022-12-18T00:42:45.525Z,64.64
2022-12-18T00:45:13.097Z,64.43
2022-12-18T00:47:40.190Z,65.03
2022-12-18T00:50:07.355Z,64.96
2022-12-18T00:52:34.007Z,64.80
2022-12-18T00:55:05.840Z,64.70
2022-12-18T00:57:32.958Z,65.30
2022-12-18T00:59:59.702Z,65.41
2022-12-18T01:02:26.465Z,65.63
2022-12-18T01:04:53.204Z,65.45
2022-12-18T01:07:19.834Z,65.56
2022-12-18T01:09:46.483Z,65.40
2022-12-18T01:12:13.105Z,66.19
2022-12-18T01:14:39.717Z,65.95
2022-12-18T01:17:06.353Z,66.46
2022-12-18T01:19:33.084Z,66.27
2022-12-18T01:21:59.761Z,66.40
2022-12-18T01:24:26.408Z,66.52
2022-12-18T01:26:53.045Z,66.54
2022-12-18T01:29:19.689Z,66.95
2022-12-18T01:31:46.400Z,67.17
2022-12-18T01:34:13.093Z,67.07
2022-12-18T01:36:39.726Z,66.79
2022-12-18T01:39:08.460Z,66.92
2022-12-18T01:41:35.597Z,67.30
2022-12-18T01:44:02.230Z,66.71
2022-12-18T01:46:28.849Z,66.92
2022-12-18T01:48:57.806Z,67.11
2022-12-18T01:51:24.942Z,67.46
2022-12-18T01:53:51.568Z,67.60
2022-12-18T01:56:19.645Z,67.61
2022-12-18T01:58:53.767Z,67.25
2022-12-18T02:01:22.156Z,67.72
2022-12-18T02:03:48.843Z,67.70
2022-12-18T02:06:15.320Z,67.59
2022-12-18T02:09:09.529Z,67.67
2022-12-18T02:11:47.328Z,68.36
2022-12-18T02:14:29.203Z,68.08
2022-12-18T02:17:11.920Z,68.57
2022-12-18T02:20:02.851Z,68.66
2022-12-18T02:23:02.183Z,68.70
2022-12-18T02:25:28.907Z,69.02
2022-12-18T02:27:55.540Z,68.35
2022-12-18T02:30:22.282Z,68.51
2022-12-18T02:32:51.733Z,68.40
2022-12-18T02:35:21.867Z,68.29
2022-12-18T02:37:48.506Z,69.12
2022-12-18T02:40:15.404Z,68.91
2022-12-18T02:42:42.153Z,69.28
2022-12-18T02:45:09.001Z,68.75
2022-12-18T02:47:38.404Z,69.02
2022-12-18T02:50:17.982Z,68.57
2022-12-18T02:53:10.838Z,69.38
2022-12-18T02:56:07.184Z,69.41
2022-12-18T02:58:35.608Z,69.64
2022-12-18T03:01:22.561Z,68.95
2022-12-18T03:03:55.553Z,69.59
2022-12-18T03:06:34.921Z,68.95
2022-12-18T03:09:03.714Z,69.35
2022-12-18T03:11:31.993Z,69.14
2022-12-18T03:13:58.721Z,69.40
2022-12-18T03:16:29.674Z,69.24
2022-12-18T03:19:01.910Z,68.78
2022-12-18T03:21:48.524Z,69.06
2022-12-18T03:24:15.165Z,68.90
2022-12-18T03:26:43.669Z,69.18
2022-12-18T03:29:13.462Z,69.04
2022-12-18T03:31:41.273Z,69.44
2022-12-18T03:34:14.587Z,69.71
2022-12-18T03:36:41.237Z,68.95
2022-12-18T03:39:07.854Z,69.00
2022-12-18T03:41:48.531Z,68.74
2022-12-18T03:44:16.133Z,68.61
2022-12-18T03:47:15.007Z,69.05
2022-12-18T03:50:00.300Z,69.05
2022-12-18T03:52:29.089Z,69.01
2022-12-18T03:54:56.284Z,69.52
2022-12-18T03:57:24.667Z,69.38
2022-12-18T03:59:53.302Z,69.38
2022-12-18T04:02:20.123Z,69.33
2022-12-18T04:04:46.874Z,69.41
2022-12-18T04:07:13.498Z,69.04
2022-12-18T04:09:40.201Z,68.95
2022-12-18T04:12:09.168Z,69.04
2022-12-18T04:14:35.824Z,69.27
2022-12-18T04:17:03.257Z,69.73
2022-12-18T04:19:29.903Z,69.43
2022-12-18T04:21:56.537Z,69.41
2022-12-18T04:24:23.198Z,69.33
2022-12-18T04:26:49.815Z,69.52
2022-12-18T04:29:16.447Z,69.26
2022-12-18T04:31:43.077Z,68.80
2022-12-18T04:34:09.699Z,69.51
2022-12-18T04:36:36.341Z,69.65
2022-12-18T04:39:03.001Z,69.91
2022-12-18T04:41:29.623Z,69.48
2022-12-18T04:43:56.315Z,69.73
2022-12-18T04:46:23.028Z,69.87
2022-12-18T04:48:49.693Z,69.54
2022-12-18T04:51:16.350Z,69.54
2022-12-18T04:53:43.204Z,69.38
2022-12-18T04:56:12.514Z,69.56
2022-12-18T04:58:39.400Z,69.52
2022-12-18T05:01:06.157Z,69.74
2022-12-18T05:03:32.849Z,69.94
2022-12-18T05:05:59.563Z,69.54
2022-12-18T05:08:26.364Z,68.88
2022-12-18T05:11:03.059Z,69.03
2022-12-18T05:13:29.758Z,68.93
2022-12-18T05:15:56.447Z,69.15
2022-12-18T05:18:23.842Z,68.75
2022-12-18T05:20:53.380Z,68.84
2022-12-18T05:23:20.086Z,69.12
2022-12-18T05:25:55.348Z,68.97
2022-12-18T05:28:21.976Z,69.95
2022-12-18T05:30:50.175Z,69.94
2022-12-18T05:33:16.928Z,69.73
2022-12-18T05:35:43.562Z,69.95
2022-12-18T05:38:10.190Z,69.91
2022-12-18T05:40:36.818Z,69.55
2022-12-18T05:43:06.148Z,69.36
2022-12-18T05:45:32.791Z,69.32
2022-12-18T05:47:59.454Z,69.21
2022-12-18T05:50:26.152Z,68.90
2022-12-18T05:52:52.786Z,69.63
2022-12-18T05:55:19.421Z,68.57
2022-12-18T05:57:46.056Z,67.54
2022-12-18T06:00:13.671Z,68.58
2022-12-18T06:02:40.440Z,68.36
2022-12-18T06:05:07.360Z,68.45
2022-12-18T06:07:33.976Z,68.17
2022-12-18T06:10:00.628Z,68.29
2022-12-18T06:12:27.266Z,68.61
2022-12-18T06:14:53.906Z,68.26
2022-12-18T06:17:20.608Z,68.67
2022-12-18T06:19:47.234Z,68.07
2022-12-18T06:22:13.876Z,67.32
2022-12-18T06:24:40.486Z,68.15
2022-12-18T06:27:07.109Z,67.63
2022-12-18T06:29:33.725Z,66.79
2022-12-18T06:32:00.398Z,67.22
2022-12-18T06:34:27.053Z,67.69
2022-12-18T06:36:53.693Z,67.47
2022-12-18T06:39:20.302Z,67.24
2022-12-18T06:41:46.952Z,67.27
2022-12-18T06:44:13.669Z,67.00
2022-12-18T06:46:40.334Z,67.32
2022-12-18T06:49:08.381Z,67.04
2022-12-18T06:51:34.994Z,66.73
2022-12-18T06:54:01.680Z,66.52
2022-12-18T06:56:28.371Z,66.86
2022-12-18T06:58:55.036Z,66.85
2022-12-18T07:01:21.797Z,66.39
2022-12-18T07:03:48.558Z,66.21
2022-12-18T07:06:18.853Z,66.50
2022-12-18T07:08:46.022Z,66.64
2022-12-18T07:11:12.773Z,65.88
2022-12-18T07:13:39.864Z,65.82
2022-12-18T07:16:17.052Z,65.24
2022-12-18T07:18:47.663Z,65.97
2022-12-18T07:21:15.806Z,65.45
2022-12-18T07:23:42.836Z,65.39
2022-12-18T07:26:11.309Z,65.89
2022-12-18T07:28:38.568Z,65.51
2022-12-18T07:31:06.145Z,65.84
2022-12-18T07:33:34.213Z,65.18
2022-12-18T07:36:01.577Z,65.13
2022-12-18T07:38:28.206Z,65.17
2022-12-18T07:40:55.147Z,64.06
2022-12-18T07:43:21.769Z,63.88
2022-12-18T07:45:50.356Z,64.80
2022-12-18T07:48:17.025Z,64.53
2022-12-18T07:50:43.686Z,64.30
2022-12-18T07:53:10.317Z,64.13
2022-12-18T07:56:05.318Z,63.80
2022-12-18T07:58:23.572Z,63.90
2022-12-18T08:00:50.217Z,64.02
2022-12-18T08:03:17.045Z,64.88
2022-12-18T08:05:43.700Z,64.29
2022-12-18T08:08:10.780Z,64.68
2022-12-18T08:10:38.459Z,62.94
2022-12-18T08:13:05.375Z,56.98
2022-12-18T08:15:32.200Z,51.46
2022-12-18T08:17:58.881Z,45.39
2022-12-18T08:20:25.522Z,44.02
2022-12-18T08:22:52.143Z,41.54
2022-12-18T08:25:18.759Z,39.46
2022-12-18T08:27:45.372Z,36.74
2022-12-18T08:30:12.306Z,34.90
2022-12-18T08:32:38.950Z,32.68
2022-12-18T08:35:06.345Z,33.22
2022-12-18T08:37:33.037Z,30.77
2022-12-18T08:39:59.719Z,30.09
2022-12-18T08:42:26.359Z,29.15
2022-12-18T08:44:53.024Z,28.09
2022-12-18T08:47:19.705Z,27.67
2022-12-18T08:49:46.345Z,25.89
2022-12-18T08:52:13.097Z,25.64
2022-12-18T08:54:39.724Z,25.33
2022-12-18T08:57:06.351Z,26.07
2022-12-18T08:59:32.992Z,26.85
2022-12-18T09:01:59.682Z,24.70
2022-12-18T09:04:26.389Z,24.04
2022-12-18T09:06:53.026Z,24.55
2022-12-18T09:09:19.648Z,25.36
2022-12-18T09:11:46.427Z,24.00
2022-12-18T09:14:13.061Z,24.88
2022-12-18T09:16:39.732Z,23.64
2022-12-18T09:19:06.572Z,22.96
2022-12-18T09:21:36.760Z,22.31
2022-12-18T09:24:04.164Z,21.40
2022-12-18T09:26:32.233Z,21.87
2022-12-18T09:28:58.881Z,21.13
2022-12-18T09:31:25.634Z,21.68
2022-12-18T09:33:52.425Z,21.13
2022-12-18T09:36:19.148Z,22.33
2022-12-18T09:38:45.790Z,22.31
2022-12-18T09:41:45.984Z,22.74
2022-12-18T09:44:31.812Z,22.38
2022-12-18T09:46:58.389Z,23.90
2022-12-18T09:49:26.604Z,23.90
2022-12-18T09:52:18.861Z,25.78
2022-12-18T09:55:13.602Z,28.86
2022-12-18T09:57:43.504Z,31.06
2022-12-18T10:00:10.433Z,32.50
2022-12-18T10:02:37.209Z,34.64
2022-12-18T10:05:10.752Z,34.48
2022-12-18T10:08:16.919Z,35.85
2022-12-18T10:10:51.314Z,36.51
2022-12-18T10:13:43.023Z,38.57
2022-12-18T10:16:20.574Z,37.71
2022-12-18T10:19:41.535Z,38.41
2022-12-18T10:22:10.541Z,39.50
2022-12-18T10:24:40.285Z,38.48
2022-12-18T10:27:15.254Z,39.86
2022-12-18T10:29:43.627Z,39.20
2022-12-18T10:32:15.310Z,40.87
2022-12-18T10:34:41.948Z,40.22
2022-12-18T10:37:12.840Z,41.99
2022-12-18T10:39:39.444Z,41.92
2022-12-18T10:42:17.438Z,42.86
2022-12-18T10:44:44.069Z,43.01
2022-12-18T10:47:13.777Z,43.56
2022-12-18T10:49:43.415Z,42.73
2022-12-18T10:52:21.331Z,43.14
2022-12-18T10:54:53.599Z,43.11
2022-12-18T10:57:25.842Z,43.31
2022-12-18T10:59:54.055Z,43.74
2022-12-18T11:02:35.548Z,43.89
2022-12-18T11:05:02.330Z,43.51
2022-12-18T11:07:48.375Z,45.32
2022-12-18T11:10:17.980Z,45.31
2022-12-18T11:12:44.638Z,45.32
2022-12-18T11:15:30.615Z,45.30
2022-12-18T11:17:57.229Z,46.14
2022-12-18T11:20:33.433Z,46.45
2022-12-18T11:23:01.637Z,45.31
2022-12-18T11:25:32.935Z,44.79
2022-12-18T11:28:05.616Z,44.28
2022-12-18T11:30:33.949Z,46.10
2022-12-18T11:33:08.107Z,46.45
2022-12-18T11:35:52.997Z,46.39
2022-12-18T11:38:29.902Z,45.44
2022-12-18T11:41:01.622Z,47.26
2022-12-18T11:43:30.742Z,49.07
2022-12-18T11:46:02.629Z,49.64
2022-12-18T11:48:39.318Z,50.09
2022-12-18T11:51:06.932Z,50.48
2022-12-18T11:53:33.681Z,51.53
2022-12-18T11:56:42.985Z,51.58
2022-12-18T11:59:25.168Z,52.09
2022-12-18T12:02:15.687Z,52.81
2022-12-18T12:05:00.537Z,53.40
2022-12-18T12:07:48.310Z,53.24
2022-12-18T12:10:27.101Z,53.07
2022-12-18T12:12:53.608Z,53.08
2022-12-18T12:15:20.140Z,53.54
2022-12-18T12:17:52.628Z,53.59
2022-12-18T12:20:49.574Z,53.48
2022-12-18T12:23:26.162Z,53.72
2022-12-18T12:26:05.069Z,53.01
2022-12-18T12:29:02.187Z,53.33
2022-12-18T12:31:48.180Z,54.07
2022-12-18T12:34:31.521Z,54.24
2022-12-18T12:37:22.331Z,54.26
2022-12-18T12:39:48.987Z,54.60
2022-12-18T12:42:36.665Z,54.18
2022-12-18T12:45:06.098Z,54.94
2022-12-18T12:47:42.742Z,54.77
2022-12-18T12:50:14.828Z,54.54
2022-12-18T12:52:46.913Z,54.92
2022-12-18T12:55:21.396Z,54.62
2022-12-18T12:57:59.973Z,55.03
2022-12-18T13:00:26.888Z,55.02
2022-12-18T13:03:20.887Z,54.71
2022-12-18T13:05:51.977Z,54.94
2022-12-18T13:08:35.322Z,54.65
2022-12-18T13:11:02.564Z,55.33
2022-12-18T13:13:30.306Z,54.53
2022-12-18T13:16:07.518Z,55.30
2022-12-18T13:18:34.141Z,55.35
2022-12-18T13:21:03.222Z,55.36
2022-12-18T13:23:35.249Z,54.88
2022-12-18T13:26:08.280Z,55.36
2022-12-18T13:28:34.777Z,55.43
2022-12-18T13:31:02.164Z,54.78
2022-12-18T13:33:34.860Z,56.33
2022-12-18T13:36:04.036Z,55.04
2022-12-18T13:38:34.282Z,54.95
2022-12-18T13:41:21.181Z,55.51
2022-12-18T13:43:53.581Z,56.08
2022-12-18T13:46:29.538Z,56.17
2022-12-18T13:49:07.133Z,56.30
2022-12-18T13:51:34.400Z,55.79
2022-12-18T13:54:18.300Z,55.68
2022-12-18T13:56:45.932Z,56.42
2022-12-18T13:59:26.839Z,56.42
2022-12-18T14:01:58.406Z,56.47
2022-12-18T14:04:29.631Z,56.68
2022-12-18T14:07:04.092Z,56.81
2022-12-18T14:09:32.536Z,56.41
2022-12-18T14:11:59.372Z,57.03
2022-12-18T14:14:32.389Z,57.06
2022-12-18T14:17:00.682Z,57.13
2022-12-18T14:19:27.610Z,57.18
2022-12-18T14:21:54.245Z,57.07
2022-12-18T14:24:22.180Z,57.13
2022-12-18T14:26:50.001Z,57.37
2022-12-18T14:29:20.206Z,57.50
2022-12-18T14:32:08.436Z,57.33
2022-12-18T14:34:38.535Z,57.68
2022-12-18T14:37:05.403Z,57.77
2022-12-18T14:39:32.059Z,57.77
2022-12-18T14:41:58.715Z,58.02
2022-12-18T14:44:25.450Z,58.76
2022-12-18T14:46:52.114Z,58.74
2022-12-18T14:49:31.080Z,59.20
2022-12-18T14:52:05.355Z,59.22
2022-12-18T14:54:32.121Z,59.34
2022-12-18T14:57:04.562Z,59.75
2022-12-18T14:59:31.357Z,60.28
2022-12-18T15:02:17.678Z,60.51
2022-12-18T15:04:44.680Z,60.64
2022-12-18T15:07:16.726Z,60.97
2022-12-18T15:09:45.132Z,61.36
2022-12-18T15:12:27.368Z,61.54
2022-12-18T15:14:54.155Z,61.47
2022-12-18T15:17:23.120Z,61.44
2022-12-18T15:19:53.234Z,61.28
2022-12-18T15:22:24.059Z,61.57
2022-12-18T15:24:50.767Z,61.76
2022-12-18T15:27:26.106Z,61.90
2022-12-18T15:30:23.265Z,62.01
2022-12-18T15:32:50.145Z,62.67
2022-12-18T15:35:19.046Z,62.68
2022-12-18T15:37:45.704Z,63.38
2022-12-18T15:40:17.442Z,63.11
2022-12-18T15:42:44.202Z,63.17
2022-12-18T15:45:14.140Z,63.25
2022-12-18T15:47:41.416Z,63.69
2022-12-18T15:50:08.517Z,64.62
2022-12-18T15:52:47.461Z,64.95
2022-12-18T15:55:14.710Z,64.55
2022-12-18T15:57:41.349Z,64.13
2022-12-18T16:00:12.833Z,64.16
2022-12-18T16:02:39.667Z,64.37
2022-12-18T16:05:14.702Z,65.11
2022-12-18T16:07:41.381Z,65.26
2022-12-18T16:10:08.283Z,64.86
2022-12-18T16:12:35.437Z,65.84
2022-12-18T16:15:02.847Z,65.14
2022-12-18T16:17:29.486Z,65.40
2022-12-18T16:19:56.350Z,65.71
2022-12-18T16:22:24.941Z,65.30
2022-12-18T16:24:52.062Z,65.96
2022-12-18T16:27:18.827Z,66.18
2022-12-18T16:29:45.456Z,66.47
2022-12-18T16:32:16.937Z,66.26
2022-12-18T16:34:43.599Z,66.19
2022-12-18T16:37:11.346Z,65.91
2022-12-18T16:39:38.867Z,66.74
2022-12-18T16:42:16.525Z,66.45
2022-12-18T16:44:43.489Z,66.57
2022-12-18T16:47:10.176Z,66.46
2022-12-18T16:49:38.441Z,67.12
2022-12-18T16:52:05.796Z,67.54
2022-12-18T16:54:32.429Z,67.61
2022-12-18T16:56:59.129Z,67.38
2022-12-18T16:59:25.801Z,66.80
2022-12-18T17:01:52.633Z,67.77
2022-12-18T17:04:19.346Z,68.03
2022-12-18T17:06:46.022Z,67.19
2022-12-18T17:09:13.229Z,67.44
2022-12-18T17:11:39.887Z,67.50
2022-12-18T17:14:11.093Z,67.57
2022-12-18T17:16:37.793Z,66.98
2022-12-18T17:19:09.668Z,67.95
2022-12-18T17:21:40.348Z,67.81
2022-12-18T17:24:07.602Z,67.83
2022-12-18T17:26:34.218Z,67.62
2022-12-18T17:29:00.853Z,67.53
2022-12-18T17:31:28.651Z,68.21
2022-12-18T17:33:55.341Z,67.51
2022-12-18T17:36:22.107Z,67.64
2022-12-18T17:38:52.220Z,67.73
2022-12-18T17:41:18.869Z,68.80
2022-12-18T17:43:50.397Z,68.59
2022-12-18T17:46:17.084Z,67.69
2022-12-18T17:48:43.746Z,66.76
2022-12-18T17:51:10.748Z,66.93
2022-12-18T17:53:38.719Z,67.86
2022-12-18T17:56:05.897Z,68.30
2022-12-18T17:58:36.210Z,68.21
2022-12-18T18:01:04.303Z,67.85
2022-12-18T18:03:31.959Z,68.31
2022-12-18T18:05:59.395Z,67.94
2022-12-18T18:08:26.563Z,67.29
2022-12-18T18:10:53.330Z,68.33
2022-12-18T18:13:24.489Z,68.03
2022-12-18T18:15:57.679Z,67.43
2022-12-18T18:18:24.517Z,67.55
2022-12-18T18:20:51.541Z,67.50
2022-12-18T18:23:24.674Z,67.05
2022-12-18T18:25:51.405Z,67.13
2022-12-18T18:28:18.705Z,66.26
2022-12-18T18:30:45.437Z,67.09
2022-12-18T18:33:12.284Z,67.72
2022-12-18T18:35:58.347Z,67.82
2022-12-18T18:38:25.057Z,67.99
2022-12-18T18:41:01.357Z,68.50
2022-12-18T18:43:28.010Z,68.80
2022-12-18T18:45:58.035Z,68.46
2022-12-18T18:48:25.307Z,69.11
2022-12-18T18:51:22.700Z,68.35
2022-12-18T18:53:50.958Z,69.19
2022-12-18T18:56:56.444Z,69.57
2022-12-18T18:59:06.674Z,69.23
2022-12-18T19:01:33.423Z,69.18
2022-12-18T19:04:00.597Z,68.83
2022-12-18T19:06:27.999Z,69.05
2022-12-18T19:08:55.114Z,69.23
2022-12-18T19:11:22.430Z,69.17
2022-12-18T19:13:49.069Z,68.85
2022-12-18T19:16:15.818Z,68.32
2022-12-18T19:18:42.858Z,67.95
2022-12-18T19:21:09.850Z,68.70
2022-12-18T19:23:36.607Z,68.81
2022-12-18T19:26:27.443Z,68.90
2022-12-18T19:28:50.777Z,69.26
2022-12-18T19:31:22.818Z,69.00
2022-12-18T19:33:51.533Z,69.26
2022-12-18T19:36:22.773Z,68.90
2022-12-18T19:38:49.999Z,69.65
2022-12-18T19:41:16.916Z,68.93
2022-12-18T19:43:44.965Z,69.39
2022-12-18T19:46:15.771Z,69.39
2022-12-18T19:48:43.105Z,68.65
2022-12-18T19:51:39.367Z,68.97
2022-12-18T19:54:06.018Z,68.82
2022-12-18T19:56:33.646Z,69.11
2022-12-18T19:59:00.604Z,68.45
2022-12-18T20:01:27.452Z,68.26
2022-12-18T20:03:56.120Z,68.18
2022-12-18T20:06:34.878Z,68.69
2022-12-18T20:09:05.642Z,68.08
2022-12-18T20:11:32.937Z,68.42
2022-12-18T20:14:02.505Z,68.64
2022-12-18T20:16:29.519Z,69.21
2022-12-18T20:18:57.354Z,68.71
2022-12-18T20:21:26.898Z,68.86
2022-12-18T20:23:53.594Z,69.34
2022-12-18T20:26:20.354Z,69.31
2022-12-18T20:28:47.042Z,69.15
2022-12-18T20:31:14.235Z,69.16
2022-12-18T20:33:41.659Z,68.97
2022-12-18T20:36:12.384Z,69.16
2022-12-18T20:38:39.572Z,68.98
2022-12-18T20:41:08.482Z,68.21
2022-12-18T20:43:35.323Z,69.18
2022-12-18T20:46:07.136Z,68.87
2022-12-18T20:48:33.820Z,68.81
2022-12-18T20:51:02.053Z,69.30
2022-12-18T20:53:30.649Z,69.41
2022-12-18T20:55:57.292Z,68.48
2022-12-18T20:58:24.195Z,68.67
2022-12-18T21:00:51.014Z,68.49
2022-12-18T21:03:17.785Z,69.16
2022-12-18T21:05:44.638Z,68.46
2022-12-18T21:08:11.273Z,68.55
2022-12-18T21:10:39.931Z,68.29
2022-12-18T21:13:07.279Z,67.70
2022-12-18T21:15:35.407Z,67.87
2022-12-18T21:18:02.044Z,67.99
2022-12-18T21:20:28.909Z,68.13
2022-12-18T21:22:59.155Z,67.87
2022-12-18T21:25:38.861Z,68.19
2022-12-18T21:28:05.473Z,68.95
2022-12-18T21:30:32.769Z,68.40
2022-12-18T21:32:59.486Z,68.55
2022-12-18T21:35:26.382Z,68.95
2022-12-18T21:37:55.884Z,69.11
2022-12-18T21:40:22.567Z,68.17
2022-12-18T21:42:49.489Z,68.50
2022-12-18T21:45:16.150Z,68.49
2022-12-18T21:47:42.777Z,67.96
2022-12-18T21:50:09.457Z,68.65
2022-12-18T21:52:36.142Z,68.62
2022-12-18T21:55:08.977Z,69.58
2022-12-18T21:57:39.846Z,68.83
2022-12-18T22:00:07.543Z,69.38
2022-12-18T22:02:34.435Z,68.63
2022-12-18T22:05:01.236Z,68.75
2022-12-18T22:07:27.928Z,69.24
2022-12-18T22:09:54.880Z,69.34
2022-12-18T22:12:21.562Z,69.02
2022-12-18T22:14:48.216Z,69.23
2022-12-18T22:17:14.946Z,68.45
2022-12-18T22:19:43.067Z,69.23
2022-12-18T22:22:10.286Z,69.11
2022-12-18T22:24:37.039Z,67.89
2022-12-18T22:27:03.695Z,68.82
2022-12-18T22:29:30.853Z,68.69
2022-12-18T22:31:59.352Z,68.72
2022-12-18T22:34:26.015Z,68.99
2022-12-18T22:36:52.756Z,67.94
2022-12-18T22:39:21.090Z,68.49
2022-12-18T22:41:48.060Z,69.27
2022-12-18T22:44:15.017Z,69.42
2022-12-18T22:46:46.026Z,68.53
2022-12-18T22:49:16.935Z,68.41
2022-12-18T22:51:43.821Z,67.76
2022-12-18T22:54:10.511Z,68.17
2022-12-18T22:56:37.186Z,68.49
2022-12-18T22:59:03.900Z,68.75
2022-12-18T23:01:30.907Z,68.62
2022-12-18T23:03:58.075Z,67.92
2022-12-18T23:06:26.037Z,68.33
2022-12-18T23:08:56.022Z,69.11
2022-12-18T23:11:22.854Z,69.08
2022-12-18T23:13:49.890Z,68.39
2022-12-18T23:16:17.488Z,68.77
2022-12-18T23:18:44.233Z,68.37
2022-12-18T23:21:15.287Z,68.75
2022-12-18T23:23:43.712Z,67.96
2022-12-18T23:26:19.237Z,67.60
2022-12-18T23:28:45.964Z,67.25
2022-12-18T23:31:16.722Z,68.29
2022-12-18T23:33:44.529Z,68.34
2022-12-18T23:36:11.670Z,68.25
2022-12-18T23:38:38.335Z,68.77
2022-12-18T23:41:13.139Z,68.12
2022-12-18T23:43:40.033Z,68.80
2022-12-18T23:46:11.188Z,68.28
2022-12-18T23:48:38.407Z,69.07
2022-12-18T23:51:06.908Z,68.58
2022-12-18T23:53:33.534Z,68.90
2022-12-18T23:56:00.148Z,68.25
2022-12-18T23:58:27.114Z,68.94
